sensor_id;sensor_type;location;lat;lon;timestamp;P1;durP1;ratioP1;P2;durP2;ratioP2
14748;SDS011;7466;53.574;9.976;2023-04-30T00:02:35;13.73;;;4.50;;
14748;SDS011;7466;53.574;9.976;2023-04-30T00:05:08;11.43;;;4.03;;
14748;SDS011;7466;53.574;9.976;2023-04-30T00:07:37;17.20;;;4.77;;
14748;SDS011;7466;53.574;9.976;2023-04-30T00:10:06;7.67;;;4.10;;
14748;SDS011;7466;53.574;9.976;2023-04-30T00:12:34;16.10;;;4.87;;
14748;SDS011;7466;53.574;9.976;2023-04-30T00:15:01;15.23;;;5.30;;
14748;SDS011;7466;53.574;9.976;2023-04-30T00:17:28;12.43;;;4.90;;
14748;SDS011;7466;53.574;9.976;2023-04-30T00:19:55;10.73;;;4.63;;
14748;SDS011;7466;53.574;9.976;2023-04-30T00:22:24;15.73;;;5.07;;
14748;SDS011;7466;53.574;9.976;2023-04-30T00:24:51;10.77;;;4.43;;
14748;SDS011;7466;53.574;9.976;2023-04-30T00:27:24;11.37;;;4.00;;
14748;SDS011;7466;53.574;9.976;2023-04-30T00:29:52;12.13;;;4.70;;
14748;SDS011;7466;53.574;9.976;2023-04-30T00:32:19;12.93;;;4.80;;
14748;SDS011;7466;53.574;9.976;2023-04-30T00:34:55;10.97;;;5.07;;
14748;SDS011;7466;53.574;9.976;2023-04-30T00:37:22;15.40;;;4.73;;
14748;SDS011;7466;53.574;9.976;2023-04-30T00:39:51;13.73;;;4.67;;
14748;SDS011;7466;53.574;9.976;2023-04-30T00:42:18;9.43;;;4.37;;
14748;SDS011;7466;53.574;9.976;2023-04-30T00:44:45;10.57;;;4.47;;
14748;SDS011;7466;53.574;9.976;2023-04-30T00:47:12;9.37;;;4.60;;
14748;SDS011;7466;53.574;9.976;2023-04-30T00:49:39;10.17;;;4.83;;
14748;SDS011;7466;53.574;9.976;2023-04-30T00:52:06;14.20;;;4.97;;
14748;SDS011;7466;53.574;9.976;2023-04-30T00:54:33;10.60;;;4.93;;
14748;SDS011;7466;53.574;9.976;2023-04-30T00:57:01;14.53;;;4.87;;
14748;SDS011;7466;53.574;9.976;2023-04-30T00:59:30;9.20;;;4.67;;
14748;SDS011;7466;53.574;9.976;2023-04-30T01:01:58;10.07;;;4.77;;
14748;SDS011;7466;53.574;9.976;2023-04-30T01:04:26;7.40;;;4.40;;
14748;SDS011;7466;53.574;9.976;2023-04-30T01:06:54;12.33;;;4.87;;
14748;SDS011;7466;53.574;9.976;2023-04-30T01:09:21;15.67;;;4.60;;
14748;SDS011;7466;53.574;9.976;2023-04-30T01:11:51;13.67;;;4.67;;
14748;SDS011;7466;53.574;9.976;2023-04-30T01:14:28;12.17;;;4.60;;
14748;SDS011;7466;53.574;9.976;2023-04-30T01:17:01;12.77;;;5.13;;
14748;SDS011;7466;53.574;9.976;2023-04-30T01:19:35;16.50;;;4.83;;
14748;SDS011;7466;53.574;9.976;2023-04-30T01:22:08;16.00;;;4.17;;
14748;SDS011;7466;53.574;9.976;2023-04-30T01:24:48;14.67;;;5.13;;
14748;SDS011;7466;53.574;9.976;2023-04-30T01:27:29;10.83;;;4.13;;
14748;SDS011;7466;53.574;9.976;2023-04-30T01:30:08;11.47;;;5.47;;
14748;SDS011;7466;53.574;9.976;2023-04-30T01:32:37;14.67;;;4.77;;
14748;SDS011;7466;53.574;9.976;2023-04-30T01:35:03;10.80;;;4.43;;
14748;SDS011;7466;53.574;9.976;2023-04-30T01:37:38;12.03;;;5.00;;
14748;SDS011;7466;53.574;9.976;2023-04-30T01:40:17;15.00;;;4.90;;
14748;SDS011;7466;53.574;9.976;2023-04-30T01:42:51;10.80;;;4.57;;
14748;SDS011;7466;53.574;9.976;2023-04-30T01:45:39;16.93;;;5.57;;
14748;SDS011;7466;53.574;9.976;2023-04-30T01:48:18;15.50;;;5.50;;
14748;SDS011;7466;53.574;9.976;2023-04-30T01:50:54;17.47;;;5.50;;
14748;SDS011;7466;53.574;9.976;2023-04-30T01:53:30;15.30;;;5.20;;
14748;SDS011;7466;53.574;9.976;2023-04-30T01:56:04;13.87;;;4.90;;
14748;SDS011;7466;53.574;9.976;2023-04-30T01:58:35;9.13;;;5.00;;
14748;SDS011;7466;53.574;9.976;2023-04-30T02:01:05;15.33;;;5.77;;
14748;SDS011;7466;53.574;9.976;2023-04-30T02:03:32;17.07;;;4.90;;
14748;SDS011;7466;53.574;9.976;2023-04-30T02:05:59;12.77;;;5.00;;
14748;SDS011;7466;53.574;9.976;2023-04-30T02:08:25;13.87;;;5.13;;
14748;SDS011;7466;53.574;9.976;2023-04-30T02:10:53;11.20;;;5.40;;
14748;SDS011;7466;53.574;9.976;2023-04-30T02:13:19;10.93;;;5.07;;
14748;SDS011;7466;53.574;9.976;2023-04-30T02:15:46;9.27;;;4.70;;
14748;SDS011;7466;53.574;9.976;2023-04-30T02:18:14;11.07;;;4.73;;
14748;SDS011;7466;53.574;9.976;2023-04-30T02:20:41;10.70;;;4.73;;
14748;SDS011;7466;53.574;9.976;2023-04-30T02:23:08;13.20;;;4.97;;
14748;SDS011;7466;53.574;9.976;2023-04-30T02:25:35;11.20;;;5.17;;
14748;SDS011;7466;53.574;9.976;2023-04-30T02:28:03;11.40;;;4.83;;
14748;SDS011;7466;53.574;9.976;2023-04-30T02:30:30;11.33;;;5.10;;
14748;SDS011;7466;53.574;9.976;2023-04-30T02:32:58;13.93;;;4.80;;
14748;SDS011;7466;53.574;9.976;2023-04-30T02:35:26;10.17;;;4.67;;
14748;SDS011;7466;53.574;9.976;2023-04-30T02:37:52;7.63;;;4.60;;
14748;SDS011;7466;53.574;9.976;2023-04-30T02:40:19;9.77;;;4.53;;
14748;SDS011;7466;53.574;9.976;2023-04-30T02:42:46;13.17;;;4.93;;
14748;SDS011;7466;53.574;9.976;2023-04-30T02:45:15;14.13;;;4.70;;
14748;SDS011;7466;53.574;9.976;2023-04-30T02:47:42;10.97;;;4.70;;
14748;SDS011;7466;53.574;9.976;2023-04-30T02:50:09;12.07;;;4.67;;
14748;SDS011;7466;53.574;9.976;2023-04-30T02:52:37;9.70;;;4.37;;
14748;SDS011;7466;53.574;9.976;2023-04-30T02:55:04;10.93;;;4.80;;
14748;SDS011;7466;53.574;9.976;2023-04-30T02:57:31;13.93;;;5.30;;
14748;SDS011;7466;53.574;9.976;2023-04-30T02:59:58;10.63;;;5.00;;
14748;SDS011;7466;53.574;9.976;2023-04-30T03:02:25;12.23;;;4.83;;
14748;SDS011;7466;53.574;9.976;2023-04-30T03:04:52;16.97;;;4.57;;
14748;SDS011;7466;53.574;9.976;2023-04-30T03:07:19;14.27;;;5.30;;
14748;SDS011;7466;53.574;9.976;2023-04-30T03:09:47;11.00;;;5.13;;
14748;SDS011;7466;53.574;9.976;2023-04-30T03:12:14;11.73;;;5.50;;
14748;SDS011;7466;53.574;9.976;2023-04-30T03:14:41;16.77;;;5.27;;
14748;SDS011;7466;53.574;9.976;2023-04-30T03:17:20;11.67;;;5.03;;
14748;SDS011;7466;53.574;9.976;2023-04-30T03:19:47;8.60;;;4.90;;
14748;SDS011;7466;53.574;9.976;2023-04-30T03:22:14;16.47;;;5.00;;
14748;SDS011;7466;53.574;9.976;2023-04-30T03:24:43;8.67;;;5.10;;
14748;SDS011;7466;53.574;9.976;2023-04-30T03:27:11;12.33;;;5.40;;
14748;SDS011;7466;53.574;9.976;2023-04-30T03:29:38;11.23;;;5.53;;
14748;SDS011;7466;53.574;9.976;2023-04-30T03:32:05;16.10;;;4.90;;
14748;SDS011;7466;53.574;9.976;2023-04-30T03:34:32;10.00;;;5.20;;
14748;SDS011;7466;53.574;9.976;2023-04-30T03:36:58;8.40;;;5.40;;
14748;SDS011;7466;53.574;9.976;2023-04-30T03:39:25;13.67;;;5.43;;
14748;SDS011;7466;53.574;9.976;2023-04-30T03:41:52;9.97;;;5.00;;
14748;SDS011;7466;53.574;9.976;2023-04-30T03:44:20;10.50;;;5.70;;
14748;SDS011;7466;53.574;9.976;2023-04-30T03:46:48;16.00;;;5.50;;
14748;SDS011;7466;53.574;9.976;2023-04-30T03:49:15;10.60;;;5.03;;
14748;SDS011;7466;53.574;9.976;2023-04-30T03:51:41;13.43;;;5.00;;
14748;SDS011;7466;53.574;9.976;2023-04-30T03:54:08;10.27;;;5.20;;
14748;SDS011;7466;53.574;9.976;2023-04-30T03:56:35;10.20;;;5.60;;
14748;SDS011;7466;53.574;9.976;2023-04-30T03:59:02;17.83;;;5.40;;
14748;SDS011;7466;53.574;9.976;2023-04-30T04:01:31;12.20;;;4.73;;
14748;SDS011;7466;53.574;9.976;2023-04-30T04:03:59;12.57;;;5.17;;
14748;SDS011;7466;53.574;9.976;2023-04-30T04:06:27;11.83;;;5.23;;
14748;SDS011;7466;53.574;9.976;2023-04-30T04:08:54;14.77;;;5.80;;
14748;SDS011;7466;53.574;9.976;2023-04-30T04:11:21;14.03;;;5.03;;
14748;SDS011;7466;53.574;9.976;2023-04-30T04:14:01;14.60;;;5.77;;
14748;SDS011;7466;53.574;9.976;2023-04-30T04:16:27;7.73;;;4.77;;
14748;SDS011;7466;53.574;9.976;2023-04-30T04:18:58;15.63;;;5.60;;
14748;SDS011;7466;53.574;9.976;2023-04-30T04:21:27;13.73;;;4.97;;
14748;SDS011;7466;53.574;9.976;2023-04-30T04:23:53;12.60;;;4.93;;
14748;SDS011;7466;53.574;9.976;2023-04-30T04:26:20;12.23;;;5.73;;
14748;SDS011;7466;53.574;9.976;2023-04-30T04:28:49;13.20;;;5.37;;
14748;SDS011;7466;53.574;9.976;2023-04-30T04:31:16;10.13;;;4.80;;
14748;SDS011;7466;53.574;9.976;2023-04-30T04:33:44;14.10;;;5.47;;
14748;SDS011;7466;53.574;9.976;2023-04-30T04:36:12;10.30;;;5.13;;
14748;SDS011;7466;53.574;9.976;2023-04-30T04:38:40;10.57;;;5.20;;
14748;SDS011;7466;53.574;9.976;2023-04-30T04:41:07;17.07;;;5.90;;
14748;SDS011;7466;53.574;9.976;2023-04-30T04:43:34;8.83;;;5.53;;
14748;SDS011;7466;53.574;9.976;2023-04-30T04:46:01;16.10;;;5.20;;
14748;SDS011;7466;53.574;9.976;2023-04-30T04:48:28;14.67;;;5.40;;
14748;SDS011;7466;53.574;9.976;2023-04-30T04:50:55;10.77;;;6.03;;
14748;SDS011;7466;53.574;9.976;2023-04-30T04:53:23;17.17;;;5.73;;
14748;SDS011;7466;53.574;9.976;2023-04-30T04:55:50;11.57;;;5.27;;
14748;SDS011;7466;53.574;9.976;2023-04-30T04:58:17;10.50;;;5.50;;
14748;SDS011;7466;53.574;9.976;2023-04-30T05:00:44;12.13;;;5.00;;
14748;SDS011;7466;53.574;9.976;2023-04-30T05:03:11;8.67;;;5.17;;
14748;SDS011;7466;53.574;9.976;2023-04-30T05:05:38;9.70;;;5.67;;
14748;SDS011;7466;53.574;9.976;2023-04-30T05:08:05;15.27;;;5.07;;
14748;SDS011;7466;53.574;9.976;2023-04-30T05:10:33;15.43;;;5.53;;
14748;SDS011;7466;53.574;9.976;2023-04-30T05:13:00;10.23;;;5.67;;
14748;SDS011;7466;53.574;9.976;2023-04-30T05:15:26;10.27;;;5.03;;
14748;SDS011;7466;53.574;9.976;2023-04-30T05:17:53;15.80;;;6.03;;
14748;SDS011;7466;53.574;9.976;2023-04-30T05:20:20;14.60;;;5.20;;
14748;SDS011;7466;53.574;9.976;2023-04-30T05:22:47;14.87;;;5.60;;
14748;SDS011;7466;53.574;9.976;2023-04-30T05:25:14;11.10;;;5.27;;
14748;SDS011;7466;53.574;9.976;2023-04-30T05:27:42;14.47;;;5.13;;
14748;SDS011;7466;53.574;9.976;2023-04-30T05:30:13;15.60;;;5.27;;
14748;SDS011;7466;53.574;9.976;2023-04-30T05:32:40;9.43;;;5.47;;
14748;SDS011;7466;53.574;9.976;2023-04-30T05:35:08;11.37;;;4.90;;
14748;SDS011;7466;53.574;9.976;2023-04-30T05:37:35;16.93;;;5.53;;
14748;SDS011;7466;53.574;9.976;2023-04-30T05:42:37;14.43;;;5.30;;
14748;SDS011;7466;53.574;9.976;2023-04-30T05:45:07;8.60;;;4.57;;
14748;SDS011;7466;53.574;9.976;2023-04-30T05:47:34;14.33;;;4.50;;
14748;SDS011;7466;53.574;9.976;2023-04-30T05:50:01;11.20;;;4.43;;
14748;SDS011;7466;53.574;9.976;2023-04-30T05:52:28;13.27;;;4.63;;
14748;SDS011;7466;53.574;9.976;2023-04-30T05:54:56;13.07;;;4.07;;
14748;SDS011;7466;53.574;9.976;2023-04-30T05:57:23;10.97;;;4.50;;
14748;SDS011;7466;53.574;9.976;2023-04-30T05:59:50;12.17;;;4.10;;
14748;SDS011;7466;53.574;9.976;2023-04-30T06:02:19;8.97;;;3.67;;
14748;SDS011;7466;53.574;9.976;2023-04-30T06:04:46;10.73;;;3.87;;
14748;SDS011;7466;53.574;9.976;2023-04-30T06:07:13;9.80;;;4.37;;
14748;SDS011;7466;53.574;9.976;2023-04-30T06:09:40;8.93;;;4.10;;
14748;SDS011;7466;53.574;9.976;2023-04-30T06:12:07;13.87;;;4.13;;
14748;SDS011;7466;53.574;9.976;2023-04-30T06:14:34;5.20;;;2.93;;
14748;SDS011;7466;53.574;9.976;2023-04-30T06:17:01;9.23;;;3.97;;
14748;SDS011;7466;53.574;9.976;2023-04-30T06:19:29;6.17;;;3.40;;
14748;SDS011;7466;53.574;9.976;2023-04-30T06:21:56;7.60;;;2.97;;
14748;SDS011;7466;53.574;9.976;2023-04-30T06:24:23;10.10;;;3.20;;
14748;SDS011;7466;53.574;9.976;2023-04-30T06:26:51;9.10;;;3.60;;
14748;SDS011;7466;53.574;9.976;2023-04-30T06:29:18;5.23;;;2.90;;
14748;SDS011;7466;53.574;9.976;2023-04-30T06:31:48;12.57;;;3.70;;
14748;SDS011;7466;53.574;9.976;2023-04-30T06:34:15;7.97;;;3.00;;
14748;SDS011;7466;53.574;9.976;2023-04-30T06:36:43;5.37;;;2.80;;
14748;SDS011;7466;53.574;9.976;2023-04-30T06:39:11;8.57;;;3.17;;
14748;SDS011;7466;53.574;9.976;2023-04-30T06:41:39;8.00;;;3.03;;
14748;SDS011;7466;53.574;9.976;2023-04-30T06:44:05;6.73;;;3.00;;
14748;SDS011;7466;53.574;9.976;2023-04-30T06:46:33;6.47;;;3.30;;
14748;SDS011;7466;53.574;9.976;2023-04-30T06:49:00;9.90;;;3.30;;
14748;SDS011;7466;53.574;9.976;2023-04-30T06:51:27;10.90;;;2.70;;
14748;SDS011;7466;53.574;9.976;2023-04-30T06:53:56;7.60;;;3.37;;
14748;SDS011;7466;53.574;9.976;2023-04-30T06:56:23;5.67;;;3.03;;
14748;SDS011;7466;53.574;9.976;2023-04-30T06:58:50;8.00;;;3.60;;
14748;SDS011;7466;53.574;9.976;2023-04-30T07:01:17;4.97;;;2.60;;
14748;SDS011;7466;53.574;9.976;2023-04-30T07:03:44;9.00;;;2.83;;
14748;SDS011;7466;53.574;9.976;2023-04-30T07:06:11;9.77;;;2.70;;
14748;SDS011;7466;53.574;9.976;2023-04-30T07:08:45;6.97;;;3.10;;
14748;SDS011;7466;53.574;9.976;2023-04-30T07:11:14;7.47;;;2.70;;
14748;SDS011;7466;53.574;9.976;2023-04-30T07:13:43;5.73;;;2.80;;
14748;SDS011;7466;53.574;9.976;2023-04-30T07:16:10;4.83;;;2.70;;
14748;SDS011;7466;53.574;9.976;2023-04-30T07:18:37;5.73;;;2.60;;
14748;SDS011;7466;53.574;9.976;2023-04-30T07:21:04;12.00;;;3.47;;
14748;SDS011;7466;53.574;9.976;2023-04-30T07:23:32;8.07;;;2.80;;
14748;SDS011;7466;53.574;9.976;2023-04-30T07:25:59;7.73;;;2.67;;
14748;SDS011;7466;53.574;9.976;2023-04-30T07:28:27;6.40;;;2.90;;
14748;SDS011;7466;53.574;9.976;2023-04-30T07:30:54;6.33;;;2.87;;
14748;SDS011;7466;53.574;9.976;2023-04-30T07:33:21;10.20;;;3.13;;
14748;SDS011;7466;53.574;9.976;2023-04-30T07:35:47;7.57;;;2.70;;
14748;SDS011;7466;53.574;9.976;2023-04-30T07:38:15;5.00;;;2.70;;
14748;SDS011;7466;53.574;9.976;2023-04-30T07:40:43;8.70;;;2.80;;
14748;SDS011;7466;53.574;9.976;2023-04-30T07:43:10;5.80;;;3.30;;
14748;SDS011;7466;53.574;9.976;2023-04-30T07:45:38;4.77;;;2.77;;
14748;SDS011;7466;53.574;9.976;2023-04-30T07:48:06;5.13;;;2.80;;
14748;SDS011;7466;53.574;9.976;2023-04-30T07:50:35;7.23;;;2.90;;
14748;SDS011;7466;53.574;9.976;2023-04-30T07:53:01;8.00;;;3.27;;
14748;SDS011;7466;53.574;9.976;2023-04-30T07:55:33;7.13;;;3.40;;
14748;SDS011;7466;53.574;9.976;2023-04-30T07:58:00;6.70;;;2.90;;
14748;SDS011;7466;53.574;9.976;2023-04-30T08:00:27;5.97;;;2.70;;
14748;SDS011;7466;53.574;9.976;2023-04-30T08:02:58;6.73;;;3.30;;
14748;SDS011;7466;53.574;9.976;2023-04-30T08:05:26;5.30;;;2.57;;
14748;SDS011;7466;53.574;9.976;2023-04-30T08:07:53;4.90;;;2.80;;
14748;SDS011;7466;53.574;9.976;2023-04-30T08:10:20;9.23;;;2.67;;
14748;SDS011;7466;53.574;9.976;2023-04-30T08:12:47;7.97;;;2.70;;
14748;SDS011;7466;53.574;9.976;2023-04-30T08:15:13;6.80;;;2.67;;
14748;SDS011;7466;53.574;9.976;2023-04-30T08:17:43;4.33;;;2.63;;
14748;SDS011;7466;53.574;9.976;2023-04-30T08:20:12;10.17;;;3.17;;
14748;SDS011;7466;53.574;9.976;2023-04-30T08:22:39;7.73;;;2.93;;
14748;SDS011;7466;53.574;9.976;2023-04-30T08:25:08;10.30;;;3.20;;
14748;SDS011;7466;53.574;9.976;2023-04-30T08:27:36;7.53;;;3.03;;
14748;SDS011;7466;53.574;9.976;2023-04-30T08:30:04;9.47;;;2.93;;
14748;SDS011;7466;53.574;9.976;2023-04-30T08:32:33;5.07;;;2.73;;
14748;SDS011;7466;53.574;9.976;2023-04-30T08:35:01;8.27;;;3.07;;
14748;SDS011;7466;53.574;9.976;2023-04-30T08:37:29;7.20;;;2.90;;
14748;SDS011;7466;53.574;9.976;2023-04-30T08:39:56;9.03;;;3.40;;
14748;SDS011;7466;53.574;9.976;2023-04-30T08:42:24;6.57;;;3.03;;
14748;SDS011;7466;53.574;9.976;2023-04-30T08:44:54;8.07;;;2.70;;
14748;SDS011;7466;53.574;9.976;2023-04-30T08:47:23;4.70;;;2.77;;
14748;SDS011;7466;53.574;9.976;2023-04-30T08:49:50;5.60;;;3.23;;
14748;SDS011;7466;53.574;9.976;2023-04-30T08:52:17;4.97;;;3.13;;
14748;SDS011;7466;53.574;9.976;2023-04-30T08:54:46;7.90;;;3.27;;
14748;SDS011;7466;53.574;9.976;2023-04-30T08:57:14;5.43;;;2.60;;
14748;SDS011;7466;53.574;9.976;2023-04-30T08:59:43;5.07;;;2.83;;
14748;SDS011;7466;53.574;9.976;2023-04-30T09:02:10;4.37;;;2.63;;
14748;SDS011;7466;53.574;9.976;2023-04-30T09:04:38;5.77;;;2.63;;
14748;SDS011;7466;53.574;9.976;2023-04-30T09:07:05;5.20;;;2.50;;
14748;SDS011;7466;53.574;9.976;2023-04-30T09:09:36;8.93;;;3.00;;
14748;SDS011;7466;53.574;9.976;2023-04-30T09:12:11;6.37;;;2.60;;
14748;SDS011;7466;53.574;9.976;2023-04-30T09:14:40;4.90;;;2.57;;
14748;SDS011;7466;53.574;9.976;2023-04-30T09:17:09;6.50;;;2.50;;
14748;SDS011;7466;53.574;9.976;2023-04-30T09:19:46;6.40;;;2.73;;
14748;SDS011;7466;53.574;9.976;2023-04-30T09:22:17;3.43;;;2.40;;
14748;SDS011;7466;53.574;9.976;2023-04-30T09:24:46;6.57;;;2.87;;
14748;SDS011;7466;53.574;9.976;2023-04-30T09:27:18;3.73;;;2.47;;
14748;SDS011;7466;53.574;9.976;2023-04-30T09:29:47;5.30;;;2.43;;
14748;SDS011;7466;53.574;9.976;2023-04-30T09:32:14;4.97;;;2.80;;
14748;SDS011;7466;53.574;9.976;2023-04-30T09:34:41;6.27;;;3.10;;
14748;SDS011;7466;53.574;9.976;2023-04-30T09:37:08;3.40;;;2.87;;
14748;SDS011;7466;53.574;9.976;2023-04-30T09:39:45;6.63;;;2.73;;
14748;SDS011;7466;53.574;9.976;2023-04-30T09:42:13;4.83;;;2.77;;
14748;SDS011;7466;53.574;9.976;2023-04-30T09:44:41;6.10;;;2.87;;
14748;SDS011;7466;53.574;9.976;2023-04-30T09:47:11;5.73;;;2.63;;
14748;SDS011;7466;53.574;9.976;2023-04-30T09:49:40;4.87;;;3.10;;
14748;SDS011;7466;53.574;9.976;2023-04-30T09:52:08;4.57;;;2.87;;
14748;SDS011;7466;53.574;9.976;2023-04-30T09:54:36;7.37;;;2.93;;
14748;SDS011;7466;53.574;9.976;2023-04-30T09:57:03;4.50;;;2.50;;
14748;SDS011;7466;53.574;9.976;2023-04-30T09:59:34;5.70;;;2.83;;
14748;SDS011;7466;53.574;9.976;2023-04-30T10:02:03;4.90;;;2.90;;
14748;SDS011;7466;53.574;9.976;2023-04-30T10:04:33;5.63;;;2.47;;
14748;SDS011;7466;53.574;9.976;2023-04-30T10:07:01;5.37;;;2.60;;
14748;SDS011;7466;53.574;9.976;2023-04-30T10:09:34;5.70;;;2.80;;
14748;SDS011;7466;53.574;9.976;2023-04-30T10:12:05;3.80;;;2.47;;
14748;SDS011;7466;53.574;9.976;2023-04-30T10:14:37;3.40;;;2.53;;
14748;SDS011;7466;53.574;9.976;2023-04-30T10:17:07;4.87;;;2.77;;
14748;SDS011;7466;53.574;9.976;2023-04-30T10:19:39;5.50;;;2.90;;
14748;SDS011;7466;53.574;9.976;2023-04-30T10:22:11;5.47;;;2.40;;
14748;SDS011;7466;53.574;9.976;2023-04-30T10:24:38;5.53;;;2.50;;
14748;SDS011;7466;53.574;9.976;2023-04-30T10:27:07;3.10;;;2.50;;
14748;SDS011;7466;53.574;9.976;2023-04-30T10:29:34;5.20;;;2.93;;
14748;SDS011;7466;53.574;9.976;2023-04-30T10:32:00;4.57;;;2.73;;
14748;SDS011;7466;53.574;9.976;2023-04-30T10:34:34;8.27;;;2.93;;
14748;SDS011;7466;53.574;9.976;2023-04-30T10:37:13;5.67;;;3.10;;
14748;SDS011;7466;53.574;9.976;2023-04-30T10:39:46;5.63;;;2.57;;
14748;SDS011;7466;53.574;9.976;2023-04-30T10:42:14;4.03;;;2.63;;
14748;SDS011;7466;53.574;9.976;2023-04-30T10:44:41;5.07;;;2.63;;
14748;SDS011;7466;53.574;9.976;2023-04-30T10:47:08;5.13;;;2.70;;
14748;SDS011;7466;53.574;9.976;2023-04-30T10:49:37;5.13;;;2.43;;
14748;SDS011;7466;53.574;9.976;2023-04-30T10:52:06;3.43;;;2.60;;
14748;SDS011;7466;53.574;9.976;2023-04-30T10:54:36;3.97;;;2.53;;
14748;SDS011;7466;53.574;9.976;2023-04-30T10:57:13;3.80;;;2.57;;
14748;SDS011;7466;53.574;9.976;2023-04-30T10:59:50;5.77;;;2.83;;
14748;SDS011;7466;53.574;9.976;2023-04-30T11:02:18;7.20;;;2.63;;
14748;SDS011;7466;53.574;9.976;2023-04-30T11:07:36;4.90;;;2.83;;
14748;SDS011;7466;53.574;9.976;2023-04-30T11:10:12;6.67;;;2.53;;
14748;SDS011;7466;53.574;9.976;2023-04-30T11:12:46;4.17;;;2.87;;
14748;SDS011;7466;53.574;9.976;2023-04-30T11:15:14;5.17;;;2.83;;
14748;SDS011;7466;53.574;9.976;2023-04-30T11:17:44;5.30;;;2.80;;
14748;SDS011;7466;53.574;9.976;2023-04-30T11:20:21;4.90;;;2.70;;
14748;SDS011;7466;53.574;9.976;2023-04-30T11:25:38;5.27;;;2.80;;
14748;SDS011;7466;53.574;9.976;2023-04-30T11:28:06;6.40;;;3.27;;
14748;SDS011;7466;53.574;9.976;2023-04-30T11:30:34;5.43;;;3.07;;
14748;SDS011;7466;53.574;9.976;2023-04-30T11:33:01;7.07;;;3.27;;
14748;SDS011;7466;53.574;9.976;2023-04-30T11:35:36;6.63;;;3.43;;
14748;SDS011;7466;53.574;9.976;2023-04-30T11:38:04;4.17;;;3.10;;
14748;SDS011;7466;53.574;9.976;2023-04-30T11:40:34;5.37;;;2.93;;
14748;SDS011;7466;53.574;9.976;2023-04-30T11:43:01;3.67;;;2.80;;
14748;SDS011;7466;53.574;9.976;2023-04-30T11:45:28;5.07;;;2.90;;
14748;SDS011;7466;53.574;9.976;2023-04-30T11:47:55;4.80;;;2.73;;
14748;SDS011;7466;53.574;9.976;2023-04-30T11:50:23;4.17;;;3.10;;
14748;SDS011;7466;53.574;9.976;2023-04-30T11:52:55;5.57;;;3.03;;
14748;SDS011;7466;53.574;9.976;2023-04-30T11:55:23;5.10;;;2.93;;
14748;SDS011;7466;53.574;9.976;2023-04-30T11:57:52;5.90;;;3.30;;
14748;SDS011;7466;53.574;9.976;2023-04-30T12:00:20;6.80;;;3.40;;
14748;SDS011;7466;53.574;9.976;2023-04-30T12:02:50;5.20;;;3.30;;
14748;SDS011;7466;53.574;9.976;2023-04-30T12:05:19;6.17;;;2.90;;
14748;SDS011;7466;53.574;9.976;2023-04-30T12:07:47;3.83;;;2.73;;
14748;SDS011;7466;53.574;9.976;2023-04-30T12:10:16;6.13;;;2.83;;
14748;SDS011;7466;53.574;9.976;2023-04-30T12:12:45;6.63;;;2.83;;
14748;SDS011;7466;53.574;9.976;2023-04-30T12:15:13;4.07;;;2.60;;
14748;SDS011;7466;53.574;9.976;2023-04-30T12:17:42;6.63;;;3.37;;
14748;SDS011;7466;53.574;9.976;2023-04-30T12:20:10;5.20;;;3.00;;
14748;SDS011;7466;53.574;9.976;2023-04-30T12:22:41;4.20;;;3.30;;
14748;SDS011;7466;53.574;9.976;2023-04-30T12:25:12;7.23;;;3.10;;
14748;SDS011;7466;53.574;9.976;2023-04-30T12:27:44;4.90;;;3.10;;
14748;SDS011;7466;53.574;9.976;2023-04-30T12:30:12;5.53;;;3.07;;
14748;SDS011;7466;53.574;9.976;2023-04-30T12:32:40;3.73;;;3.20;;
14748;SDS011;7466;53.574;9.976;2023-04-30T12:35:08;4.05;;;3.13;;
14748;SDS011;7466;53.574;9.976;2023-04-30T12:37:41;5.25;;;3.47;;
14748;SDS011;7466;53.574;9.976;2023-04-30T12:40:09;4.38;;;3.30;;
14748;SDS011;7466;53.574;9.976;2023-04-30T12:42:36;4.70;;;3.13;;
14748;SDS011;7466;53.574;9.976;2023-04-30T12:45:05;6.60;;;3.00;;
14748;SDS011;7466;53.574;9.976;2023-04-30T12:47:36;4.55;;;3.08;;
14748;SDS011;7466;53.574;9.976;2023-04-30T12:50:06;6.30;;;3.53;;
14748;SDS011;7466;53.574;9.976;2023-04-30T12:52:36;6.78;;;3.40;;
14748;SDS011;7466;53.574;9.976;2023-04-30T12:55:13;5.10;;;2.92;;
14748;SDS011;7466;53.574;9.976;2023-04-30T12:57:41;4.45;;;3.10;;
14748;SDS011;7466;53.574;9.976;2023-04-30T13:00:30;4.30;;;3.30;;
14748;SDS011;7466;53.574;9.976;2023-04-30T13:03:09;5.53;;;3.00;;
14748;SDS011;7466;53.574;9.976;2023-04-30T13:05:36;4.03;;;2.80;;
14748;SDS011;7466;53.574;9.976;2023-04-30T13:08:04;5.85;;;3.13;;
14748;SDS011;7466;53.574;9.976;2023-04-30T13:10:31;4.05;;;2.80;;
14748;SDS011;7466;53.574;9.976;2023-04-30T13:13:00;4.82;;;3.25;;
14748;SDS011;7466;53.574;9.976;2023-04-30T13:15:27;3.65;;;2.92;;
14748;SDS011;7466;53.574;9.976;2023-04-30T13:17:55;5.03;;;2.83;;
14748;SDS011;7466;53.574;9.976;2023-04-30T13:20:22;3.72;;;2.95;;
14748;SDS011;7466;53.574;9.976;2023-04-30T13:22:50;7.05;;;3.22;;
14748;SDS011;7466;53.574;9.976;2023-04-30T13:25:17;4.10;;;2.72;;
14748;SDS011;7466;53.574;9.976;2023-04-30T13:31:06;3.15;;;2.83;;
14748;SDS011;7466;53.574;9.976;2023-04-30T13:33:35;4.80;;;3.17;;
14748;SDS011;7466;53.574;9.976;2023-04-30T13:36:01;3.83;;;3.05;;
14748;SDS011;7466;53.574;9.976;2023-04-30T13:38:28;4.35;;;2.90;;
14748;SDS011;7466;53.574;9.976;2023-04-30T13:40:55;5.30;;;2.70;;
14748;SDS011;7466;53.574;9.976;2023-04-30T13:43:22;4.93;;;2.63;;
14748;SDS011;7466;53.574;9.976;2023-04-30T13:45:50;6.30;;;3.30;;
14748;SDS011;7466;53.574;9.976;2023-04-30T13:48:16;4.07;;;2.95;;
14748;SDS011;7466;53.574;9.976;2023-04-30T13:50:47;5.10;;;3.33;;
14748;SDS011;7466;53.574;9.976;2023-04-30T13:53:25;4.82;;;2.75;;
14748;SDS011;7466;53.574;9.976;2023-04-30T13:55:53;3.65;;;3.05;;
14748;SDS011;7466;53.574;9.976;2023-04-30T13:58:20;4.63;;;2.60;;
14748;SDS011;7466;53.574;9.976;2023-04-30T14:00:47;5.47;;;2.70;;
14748;SDS011;7466;53.574;9.976;2023-04-30T14:03:15;4.75;;;2.72;;
14748;SDS011;7466;53.574;9.976;2023-04-30T14:05:43;4.03;;;2.60;;
14748;SDS011;7466;53.574;9.976;2023-04-30T14:08:13;6.03;;;3.10;;
14748;SDS011;7466;53.574;9.976;2023-04-30T14:10:40;7.20;;;2.92;;
14748;SDS011;7466;53.574;9.976;2023-04-30T14:13:07;6.13;;;3.08;;
14748;SDS011;7466;53.574;9.976;2023-04-30T14:15:34;7.00;;;2.97;;
14748;SDS011;7466;53.574;9.976;2023-04-30T14:18:02;4.90;;;3.30;;
14748;SDS011;7466;53.574;9.976;2023-04-30T14:20:29;5.45;;;3.38;;
14748;SDS011;7466;53.574;9.976;2023-04-30T14:22:56;7.05;;;3.40;;
14748;SDS011;7466;53.574;9.976;2023-04-30T14:25:24;4.78;;;3.45;;
14748;SDS011;7466;53.574;9.976;2023-04-30T14:27:51;5.60;;;3.45;;
14748;SDS011;7466;53.574;9.976;2023-04-30T14:30:18;4.50;;;3.38;;
14748;SDS011;7466;53.574;9.976;2023-04-30T14:32:45;4.47;;;2.97;;
14748;SDS011;7466;53.574;9.976;2023-04-30T14:35:12;5.97;;;3.53;;
14748;SDS011;7466;53.574;9.976;2023-04-30T14:37:38;4.30;;;3.15;;
14748;SDS011;7466;53.574;9.976;2023-04-30T14:40:06;3.88;;;2.95;;
14748;SDS011;7466;53.574;9.976;2023-04-30T14:42:35;6.18;;;3.15;;
14748;SDS011;7466;53.574;9.976;2023-04-30T14:45:01;5.72;;;3.20;;
14748;SDS011;7466;53.574;9.976;2023-04-30T14:47:28;4.95;;;3.30;;
14748;SDS011;7466;53.574;9.976;2023-04-30T14:49:55;4.88;;;2.90;;
14748;SDS011;7466;53.574;9.976;2023-04-30T14:52:22;6.60;;;3.00;;
14748;SDS011;7466;53.574;9.976;2023-04-30T14:54:49;6.35;;;3.05;;
14748;SDS011;7466;53.574;9.976;2023-04-30T14:57:16;6.65;;;3.20;;
14748;SDS011;7466;53.574;9.976;2023-04-30T14:59:45;6.00;;;3.42;;
14748;SDS011;7466;53.574;9.976;2023-04-30T15:02:11;5.97;;;2.90;;
14748;SDS011;7466;53.574;9.976;2023-04-30T15:04:41;4.57;;;3.37;;
14748;SDS011;7466;53.574;9.976;2023-04-30T15:07:10;5.87;;;3.30;;
14748;SDS011;7466;53.574;9.976;2023-04-30T15:09:37;5.13;;;3.10;;
14748;SDS011;7466;53.574;9.976;2023-04-30T15:12:04;6.00;;;3.20;;
14748;SDS011;7466;53.574;9.976;2023-04-30T15:14:31;7.70;;;3.93;;
14748;SDS011;7466;53.574;9.976;2023-04-30T15:16:59;3.90;;;3.17;;